sensor_id;sensor_type;location;lat;lon;timestamp;temperature;humidity
4431;DHT22;2228;48.140;11.488;2023-03-14T00:00:15;11.30;1.00
4431;DHT22;2228;48.140;11.488;2023-03-14T00:02:44;11.30;1.00
4431;DHT22;2228;48.140;11.488;2023-03-14T00:05:11;11.30;1.00
4431;DHT22;2228;48.140;11.488;2023-03-14T00:07:39;11.20;1.00
4431;DHT22;2228;48.140;11.488;2023-03-14T00:10:09;11.30;1.00
4431;DHT22;2228;48.140;11.488;2023-03-14T00:12:36;11.40;1.00
4431;DHT22;2228;48.140;11.488;2023-03-14T00:15:04;11.40;1.00
4431;DHT22;2228;48.140;11.488;2023-03-14T00:17:33;11.30;1.00
4431;DHT22;2228;48.140;11.488;2023-03-14T00:20:02;11.10;1.00
4431;DHT22;2228;48.140;11.488;2023-03-14T00:22:33;11.10;1.00
4431;DHT22;2228;48.140;11.488;2023-03-14T00:25:00;11.10;1.00
4431;DHT22;2228;48.140;11.488;2023-03-14T00:27:27;11.20;1.00
4431;DHT22;2228;48.140;11.488;2023-03-14T00:29:55;11.30;1.00
4431;DHT22;2228;48.140;11.488;2023-03-14T00:32:21;11.40;1.00
4431;DHT22;2228;48.140;11.488;2023-03-14T00:34:49;11.40;1.00
4431;DHT22;2228;48.140;11.488;2023-03-14T00:37:17;11.30;1.00
4431;DHT22;2228;48.140;11.488;2023-03-14T00:39:44;11.20;1.00
4431;DHT22;2228;48.140;11.488;2023-03-14T00:42:11;11.10;20.20
4431;DHT22;2228;48.140;11.488;2023-03-14T00:44:38;11.00;26.60
4431;DHT22;2228;48.140;11.488;2023-03-14T00:47:07;10.90;47.40
4431;DHT22;2228;48.140;11.488;2023-03-14T00:49:34;10.90;94.20
4431;DHT22;2228;48.140;11.488;2023-03-14T00:52:01;11.00;91.50
4431;DHT22;2228;48.140;11.488;2023-03-14T00:54:30;11.20;24.30
4431;DHT22;2228;48.140;11.488;2023-03-14T00:57:01;11.20;6.50
4431;DHT22;2228;48.140;11.488;2023-03-14T00:59:30;11.30;23.30
4431;DHT22;2228;48.140;11.488;2023-03-14T01:02:11;11.40;1.00
4431;DHT22;2228;48.140;11.488;2023-03-14T01:04:39;11.40;1.00
4431;DHT22;2228;48.140;11.488;2023-03-14T01:07:10;11.60;1.00
4431;DHT22;2228;48.140;11.488;2023-03-14T01:09:39;11.40;3.50
4431;DHT22;2228;48.140;11.488;2023-03-14T01:12:20;11.00;99.90
4431;DHT22;2228;48.140;11.488;2023-03-14T01:14:47;10.80;99.90
4431;DHT22;2228;48.140;11.488;2023-03-14T01:17:16;10.70;99.90
4431;DHT22;2228;48.140;11.488;2023-03-14T01:19:44;10.60;99.90
4431;DHT22;2228;48.140;11.488;2023-03-14T01:22:16;10.40;1.00
4431;DHT22;2228;48.140;11.488;2023-03-14T01:25:21;10.40;1.00
4431;DHT22;2228;48.140;11.488;2023-03-14T01:27:50;10.40;1.00
4431;DHT22;2228;48.140;11.488;2023-03-14T01:30:18;10.30;1.00
4431;DHT22;2228;48.140;11.488;2023-03-14T01:32:53;10.30;1.00
4431;DHT22;2228;48.140;11.488;2023-03-14T01:35:21;10.20;3.00
4431;DHT22;2228;48.140;11.488;2023-03-14T01:37:48;10.30;8.10
4431;DHT22;2228;48.140;11.488;2023-03-14T01:40:18;10.40;1.00
4431;DHT22;2228;48.140;11.488;2023-03-14T01:42:46;10.50;22.80
4431;DHT22;2228;48.140;11.488;2023-03-14T01:48:26;10.40;96.40
4431;DHT22;2228;48.140;11.488;2023-03-14T01:50:54;10.30;76.40
4431;DHT22;2228;48.140;11.488;2023-03-14T01:53:22;10.30;99.90
4431;DHT22;2228;48.140;11.488;2023-03-14T01:55:52;10.20;9.40
4431;DHT22;2228;48.140;11.488;2023-03-14T01:58:26;10.10;99.90
4431;DHT22;2228;48.140;11.488;2023-03-14T02:00:54;10.00;99.90
4431;DHT22;2228;48.140;11.488;2023-03-14T02:03:22;9.90;99.90
4431;DHT22;2228;48.140;11.488;2023-03-14T02:05:50;9.80;99.20
4431;DHT22;2228;48.140;11.488;2023-03-14T02:08:20;9.60;99.90
4431;DHT22;2228;48.140;11.488;2023-03-14T02:10:50;9.50;99.90
4431;DHT22;2228;48.140;11.488;2023-03-14T02:13:19;9.50;99.90
4431;DHT22;2228;48.140;11.488;2023-03-14T02:15:47;9.30;99.90
4431;DHT22;2228;48.140;11.488;2023-03-14T02:18:14;9.30;99.90
4431;DHT22;2228;48.140;11.488;2023-03-14T02:20:47;9.20;99.90
4431;DHT22;2228;48.140;11.488;2023-03-14T02:23:19;9.00;99.90
4431;DHT22;2228;48.140;11.488;2023-03-14T02:25:53;9.00;1.00
4431;DHT22;2228;48.140;11.488;2023-03-14T02:28:22;9.00;1.00
4431;DHT22;2228;48.140;11.488;2023-03-14T02:30:49;9.00;99.90
4431;DHT22;2228;48.140;11.488;2023-03-14T02:33:19;9.00;99.90
4431;DHT22;2228;48.140;11.488;2023-03-14T02:35:49;8.90;1.00
4431;DHT22;2228;48.140;11.488;2023-03-14T02:38:22;8.90;1.00
4431;DHT22;2228;48.140;11.488;2023-03-14T02:40:51;8.80;1.00
4431;DHT22;2228;48.140;11.488;2023-03-14T02:43:18;8.80;1.00
4431;DHT22;2228;48.140;11.488;2023-03-14T02:45:47;8.80;1.00
4431;DHT22;2228;48.140;11.488;2023-03-14T02:48:17;8.70;1.00
4431;DHT22;2228;48.140;11.488;2023-03-14T02:50:46;8.70;1.00
4431;DHT22;2228;48.140;11.488;2023-03-14T02:53:17;8.70;1.00
4431;DHT22;2228;48.140;11.488;2023-03-14T02:55:46;8.70;1.00
4431;DHT22;2228;48.140;11.488;2023-03-14T02:58:13;8.60;1.00
4431;DHT22;2228;48.140;11.488;2023-03-14T03:00:40;8.50;1.00
4431;DHT22;2228;48.140;11.488;2023-03-14T03:03:08;8.50;1.00
4431;DHT22;2228;48.140;11.488;2023-03-14T03:05:35;8.50;1.00
4431;DHT22;2228;48.140;11.488;2023-03-14T03:08:02;8.50;1.00
4431;DHT22;2228;48.140;11.488;2023-03-14T03:10:32;8.50;1.00
4431;DHT22;2228;48.140;11.488;2023-03-14T03:12:59;8.40;1.00
4431;DHT22;2228;48.140;11.488;2023-03-14T03:15:27;8.40;1.00
4431;DHT22;2228;48.140;11.488;2023-03-14T03:17:54;8.30;1.00
4431;DHT22;2228;48.140;11.488;2023-03-14T03:20:23;8.30;1.00
4431;DHT22;2228;48.140;11.488;2023-03-14T03:22:50;8.20;1.00
4431;DHT22;2228;48.140;11.488;2023-03-14T03:25:17;8.20;1.00
4431;DHT22;2228;48.140;11.488;2023-03-14T03:27:44;8.20;1.00
4431;DHT22;2228;48.140;11.488;2023-03-14T03:30:12;8.20;1.00
4431;DHT22;2228;48.140;11.488;2023-03-14T03:32:39;8.20;1.00
4431;DHT22;2228;48.140;11.488;2023-03-14T03:35:07;8.10;1.00
4431;DHT22;2228;48.140;11.488;2023-03-14T03:37:36;8.10;1.00
4431;DHT22;2228;48.140;11.488;2023-03-14T03:40:05;8.10;99.90
4431;DHT22;2228;48.140;11.488;2023-03-14T03:42:33;8.10;1.00
4431;DHT22;2228;48.140;11.488;2023-03-14T03:45:01;8.00;1.00
4431;DHT22;2228;48.140;11.488;2023-03-14T03:47:30;8.00;99.90
4431;DHT22;2228;48.140;11.488;2023-03-14T03:49:57;8.10;1.00
4431;DHT22;2228;48.140;11.488;2023-03-14T03:52:26;8.00;99.90
4431;DHT22;2228;48.140;11.488;2023-03-14T03:54:55;8.00;99.90
4431;DHT22;2228;48.140;11.488;2023-03-14T03:57:24;7.90;99.90
4431;DHT22;2228;48.140;11.488;2023-03-14T03:59:51;7.90;99.90
4431;DHT22;2228;48.140;11.488;2023-03-14T04:02:18;7.90;99.90
4431;DHT22;2228;48.140;11.488;2023-03-14T04:04:45;7.80;99.90
4431;DHT22;2228;48.140;11.488;2023-03-14T04:07:12;7.80;99.90
4431;DHT22;2228;48.140;11.488;2023-03-14T04:09:40;7.90;99.90
4431;DHT22;2228;48.140;11.488;2023-03-14T04:12:08;7.80;99.90
4431;DHT22;2228;48.140;11.488;2023-03-14T04:14:36;7.70;99.90
4431;DHT22;2228;48.140;11.488;2023-03-14T04:17:03;7.70;99.90
4431;DHT22;2228;48.140;11.488;2023-03-14T04:19:30;7.80;99.90
4431;DHT22;2228;48.140;11.488;2023-03-14T04:21:57;7.70;99.90
4431;DHT22;2228;48.140;11.488;2023-03-14T04:24:24;7.70;99.90
4431;DHT22;2228;48.140;11.488;2023-03-14T04:26:51;7.70;99.90
4431;DHT22;2228;48.140;11.488;2023-03-14T04:29:20;7.70;99.90
4431;DHT22;2228;48.140;11.488;2023-03-14T04:31:47;7.70;99.90
4431;DHT22;2228;48.140;11.488;2023-03-14T04:34:14;7.60;99.90
4431;DHT22;2228;48.140;11.488;2023-03-14T04:36:43;7.60;99.90
4431;DHT22;2228;48.140;11.488;2023-03-14T04:39:11;7.70;99.90
4431;DHT22;2228;48.140;11.488;2023-03-14T04:41:38;7.60;87.90
4431;DHT22;2228;48.140;11.488;2023-03-14T04:44:10;7.60;90.00
4431;DHT22;2228;48.140;11.488;2023-03-14T04:46:42;7.60;99.90
4431;DHT22;2228;48.140;11.488;2023-03-14T04:49:12;7.60;83.80
4431;DHT22;2228;48.140;11.488;2023-03-14T04:51:39;7.70;99.90
4431;DHT22;2228;48.140;11.488;2023-03-14T04:54:09;7.70;92.80
4431;DHT22;2228;48.140;11.488;2023-03-14T04:56:38;7.70;23.90
4431;DHT22;2228;48.140;11.488;2023-03-14T04:59:06;7.70;1.00
4431;DHT22;2228;48.140;11.488;2023-03-14T05:01:33;7.80;1.00
4431;DHT22;2228;48.140;11.488;2023-03-14T05:04:17;7.80;1.00
4431;DHT22;2228;48.140;11.488;2023-03-14T05:06:57;7.80;1.00
4431;DHT22;2228;48.140;11.488;2023-03-14T05:09:27;8.00;1.00
4431;DHT22;2228;48.140;11.488;2023-03-14T05:11:54;7.90;1.00
4431;DHT22;2228;48.140;11.488;2023-03-14T05:14:21;7.80;1.00
4431;DHT22;2228;48.140;11.488;2023-03-14T05:16:48;7.90;1.00
4431;DHT22;2228;48.140;11.488;2023-03-14T05:19:18;7.90;1.00
4431;DHT22;2228;48.140;11.488;2023-03-14T05:21:46;8.00;1.00
4431;DHT22;2228;48.140;11.488;2023-03-14T05:24:13;8.00;1.00
4431;DHT22;2228;48.140;11.488;2023-03-14T05:26:40;8.20;1.00
4431;DHT22;2228;48.140;11.488;2023-03-14T05:29:07;8.20;1.00
4431;DHT22;2228;48.140;11.488;2023-03-14T05:31:34;8.10;1.00
4431;DHT22;2228;48.140;11.488;2023-03-14T05:34:02;8.10;1.00
4431;DHT22;2228;48.140;11.488;2023-03-14T05:36:35;8.20;1.00
4431;DHT22;2228;48.140;11.488;2023-03-14T05:39:05;8.20;1.00
4431;DHT22;2228;48.140;11.488;2023-03-14T05:41:32;8.10;1.00
4431;DHT22;2228;48.140;11.488;2023-03-14T05:43:59;8.20;1.00
4431;DHT22;2228;48.140;11.488;2023-03-14T05:46:27;8.20;1.00
4431;DHT22;2228;48.140;11.488;2023-03-14T05:48:56;8.10;1.00
4431;DHT22;2228;48.140;11.488;2023-03-14T05:51:24;8.20;1.00
4431;DHT22;2228;48.140;11.488;2023-03-14T05:53:52;8.20;1.00
4431;DHT22;2228;48.140;11.488;2023-03-14T05:56:19;8.30;1.00
4431;DHT22;2228;48.140;11.488;2023-03-14T05:58:46;8.30;1.00
4431;DHT22;2228;48.140;11.488;2023-03-14T06:01:13;8.20;1.00
4431;DHT22;2228;48.140;11.488;2023-03-14T06:03:40;8.30;1.00
4431;DHT22;2228;48.140;11.488;2023-03-14T06:06:07;8.30;1.00
4431;DHT22;2228;48.140;11.488;2023-03-14T06:08:34;8.20;1.00
4431;DHT22;2228;48.140;11.488;2023-03-14T06:11:04;8.20;1.00
4431;DHT22;2228;48.140;11.488;2023-03-14T06:13:31;8.20;1.00
4431;DHT22;2228;48.140;11.488;2023-03-14T06:15:58;8.30;1.00
4431;DHT22;2228;48.140;11.488;2023-03-14T06:18:25;8.20;1.00
4431;DHT22;2228;48.140;11.488;2023-03-14T06:20:53;8.30;1.00
4431;DHT22;2228;48.140;11.488;2023-03-14T06:23:21;8.30;1.00
4431;DHT22;2228;48.140;11.488;2023-03-14T06:25:48;8.40;1.00
4431;DHT22;2228;48.140;11.488;2023-03-14T06:28:17;8.50;1.00
4431;DHT22;2228;48.140;11.488;2023-03-14T06:30:44;8.40;1.00
4431;DHT22;2228;48.140;11.488;2023-03-14T06:33:11;8.60;1.00
4431;DHT22;2228;48.140;11.488;2023-03-14T06:35:38;8.60;1.00
4431;DHT22;2228;48.140;11.488;2023-03-14T06:38:04;8.70;1.00
4431;DHT22;2228;48.140;11.488;2023-03-14T06:40:31;8.80;1.00
4431;DHT22;2228;48.140;11.488;2023-03-14T06:42:58;8.80;99.90
4431;DHT22;2228;48.140;11.488;2023-03-14T06:45:27;8.80;99.90
4431;DHT22;2228;48.140;11.488;2023-03-14T06:47:54;8.90;99.90
4431;DHT22;2228;48.140;11.488;2023-03-14T06:50:27;8.90;99.90
4431;DHT22;2228;48.140;11.488;2023-03-14T06:52:55;8.90;99.90
4431;DHT22;2228;48.140;11.488;2023-03-14T06:55:21;8.90;99.90
4431;DHT22;2228;48.140;11.488;2023-03-14T06:57:48;9.10;99.90
4431;DHT22;2228;48.140;11.488;2023-03-14T07:00:19;9.10;99.90
4431;DHT22;2228;48.140;11.488;2023-03-14T07:02:47;9.20;99.90
4431;DHT22;2228;48.140;11.488;2023-03-14T07:05:14;9.10;99.90
4431;DHT22;2228;48.140;11.488;2023-03-14T07:07:41;9.30;99.90
4431;DHT22;2228;48.140;11.488;2023-03-14T07:10:09;9.40;99.90
4431;DHT22;2228;48.140;11.488;2023-03-14T07:12:36;9.20;99.90
4431;DHT22;2228;48.140;11.488;2023-03-14T07:15:03;9.30;99.90
4431;DHT22;2228;48.140;11.488;2023-03-14T07:17:30;9.20;99.90
4431;DHT22;2228;48.140;11.488;2023-03-14T07:19:58;9.30;99.90
4431;DHT22;2228;48.140;11.488;2023-03-14T07:22:26;9.40;99.90
4431;DHT22;2228;48.140;11.488;2023-03-14T07:24:53;9.20;99.90
4431;DHT22;2228;48.140;11.488;2023-03-14T07:27:20;9.20;99.90
4431;DHT22;2228;48.140;11.488;2023-03-14T07:29:47;9.20;99.90
4431;DHT22;2228;48.140;11.488;2023-03-14T07:32:14;9.40;99.90
4431;DHT22;2228;48.140;11.488;2023-03-14T07:34:41;9.20;99.90
4431;DHT22;2228;48.140;11.488;2023-03-14T07:37:09;9.20;99.90
4431;DHT22;2228;48.140;11.488;2023-03-14T07:39:36;9.40;99.90
4431;DHT22;2228;48.140;11.488;2023-03-14T07:42:03;9.40;99.90
4431;DHT22;2228;48.140;11.488;2023-03-14T07:44:30;9.60;99.90
4431;DHT22;2228;48.140;11.488;2023-03-14T07:46:57;9.80;99.90
4431;DHT22;2228;48.140;11.488;2023-03-14T07:49:24;9.90;90.70
4431;DHT22;2228;48.140;11.488;2023-03-14T07:51:50;10.00;30.10
4431;DHT22;2228;48.140;11.488;2023-03-14T07:54:19;10.00;1.00
4431;DHT22;2228;48.140;11.488;2023-03-14T07:56:46;10.10;6.30
4431;DHT22;2228;48.140;11.488;2023-03-14T07:59:12;10.20;26.00
4431;DHT22;2228;48.140;11.488;2023-03-14T08:01:39;10.40;16.10
4431;DHT22;2228;48.140;11.488;2023-03-14T08:04:06;10.40;1.00
4431;DHT22;2228;48.140;11.488;2023-03-14T08:06:35;10.40;1.00
4431;DHT22;2228;48.140;11.488;2023-03-14T08:09:01;10.50;1.00
4431;DHT22;2228;48.140;11.488;2023-03-14T08:11:30;10.60;1.00
4431;DHT22;2228;48.140;11.488;2023-03-14T08:13:57;10.90;1.00
4431;DHT22;2228;48.140;11.488;2023-03-14T08:16:24;10.80;1.00
4431;DHT22;2228;48.140;11.488;2023-03-14T08:18:51;10.90;1.00
4431;DHT22;2228;48.140;11.488;2023-03-14T08:21:18;11.10;1.00
4431;DHT22;2228;48.140;11.488;2023-03-14T08:23:45;11.10;1.00
4431;DHT22;2228;48.140;11.488;2023-03-14T08:26:11;11.10;1.00
4431;DHT22;2228;48.140;11.488;2023-03-14T08:28:40;11.00;1.00
4431;DHT22;2228;48.140;11.488;2023-03-14T08:31:07;10.80;1.00
4431;DHT22;2228;48.140;11.488;2023-03-14T08:33:34;11.00;1.00
4431;DHT22;2228;48.140;11.488;2023-03-14T08:36:01;11.00;1.00
4431;DHT22;2228;48.140;11.488;2023-03-14T08:38:28;11.10;1.00
4431;DHT22;2228;48.140;11.488;2023-03-14T08:40:56;11.10;1.00
4431;DHT22;2228;48.140;11.488;2023-03-14T08:43:24;11.20;1.00
4431;DHT22;2228;48.140;11.488;2023-03-14T08:45:52;11.20;1.00
4431;DHT22;2228;48.140;11.488;2023-03-14T08:48:19;10.90;1.00
4431;DHT22;2228;48.140;11.488;2023-03-14T08:50:46;10.90;1.00
4431;DHT22;2228;48.140;11.488;2023-03-14T08:53:13;10.80;1.00
4431;DHT22;2228;48.140;11.488;2023-03-14T08:55:40;10.90;1.00
4431;DHT22;2228;48.140;11.488;2023-03-14T08:58:07;10.90;1.00
4431;DHT22;2228;48.140;11.488;2023-03-14T09:00:34;10.90;1.00
4431;DHT22;2228;48.140;11.488;2023-03-14T09:03:02;11.10;1.00
4431;DHT22;2228;48.140;11.488;2023-03-14T09:05:32;11.10;1.00
4431;DHT22;2228;48.140;11.488;2023-03-14T09:07:59;11.10;1.00
4431;DHT22;2228;48.140;11.488;2023-03-14T09:10:26;11.20;1.00
4431;DHT22;2228;48.140;11.488;2023-03-14T09:12:57;11.10;1.00
4431;DHT22;2228;48.140;11.488;2023-03-14T09:15:25;11.30;1.00
4431;DHT22;2228;48.140;11.488;2023-03-14T09:17:52;11.60;1.00
4431;DHT22;2228;48.140;11.488;2023-03-14T09:20:20;11.60;1.00
4431;DHT22;2228;48.140;11.488;2023-03-14T09:22:48;11.60;1.00
4431;DHT22;2228;48.140;11.488;2023-03-14T09:25:15;11.40;1.00
4431;DHT22;2228;48.140;11.488;2023-03-14T09:27:42;11.20;1.00
4431;DHT22;2228;48.140;11.488;2023-03-14T09:30:09;11.20;1.00
4431;DHT22;2228;48.140;11.488;2023-03-14T09:32:36;11.20;1.00
4431;DHT22;2228;48.140;11.488;2023-03-14T09:35:04;11.10;1.00
4431;DHT22;2228;48.140;11.488;2023-03-14T09:37:32;11.10;1.00
4431;DHT22;2228;48.140;11.488;2023-03-14T09:39:59;11.30;1.00
4431;DHT22;2228;48.140;11.488;2023-03-14T09:42:27;11.30;1.00
4431;DHT22;2228;48.140;11.488;2023-03-14T09:44:57;11.20;1.00
4431;DHT22;2228;48.140;11.488;2023-03-14T09:47:27;11.30;1.00
4431;DHT22;2228;48.140;11.488;2023-03-14T09:49:54;11.30;1.00
4431;DHT22;2228;48.140;11.488;2023-03-14T09:52:24;11.40;1.00
4431;DHT22;2228;48.140;11.488;2023-03-14T09:54:55;11.40;1.00
4431;DHT22;2228;48.140;11.488;2023-03-14T09:57:25;11.60;1.00
4431;DHT22;2228;48.140;11.488;2023-03-14T09:59:54;11.90;1.00
4431;DHT22;2228;48.140;11.488;2023-03-14T10:02:25;11.90;1.00
4431;DHT22;2228;48.140;11.488;2023-03-14T10:04:53;12.20;1.00
4431;DHT22;2228;48.140;11.488;2023-03-14T10:07:25;12.40;1.00
4431;DHT22;2228;48.140;11.488;2023-03-14T10:09:56;12.50;1.00
4431;DHT22;2228;48.140;11.488;2023-03-14T10:12:30;12.60;1.00
4431;DHT22;2228;48.140;11.488;2023-03-14T10:15:03;12.90;1.00
4431;DHT22;2228;48.140;11.488;2023-03-14T10:17:38;13.10;1.00
4431;DHT22;2228;48.140;11.488;2023-03-14T10:20:05;13.40;1.00
4431;DHT22;2228;48.140;11.488;2023-03-14T10:22:36;14.00;1.00
4431;DHT22;2228;48.140;11.488;2023-03-14T10:25:05;14.90;1.00
4431;DHT22;2228;48.140;11.488;2023-03-14T10:27:35;15.50;1.00
4431;DHT22;2228;48.140;11.488;2023-03-14T10:30:04;15.60;1.00
4431;DHT22;2228;48.140;11.488;2023-03-14T10:32:37;15.20;1.00
4431;DHT22;2228;48.140;11.488;2023-03-14T10:35:18;14.60;1.00
4431;DHT22;2228;48.140;11.488;2023-03-14T10:37:51;14.20;1.00
4431;DHT22;2228;48.140;11.488;2023-03-14T10:40:26;14.00;1.00
4431;DHT22;2228;48.140;11.488;2023-03-14T10:42:54;14.10;1.00
4431;DHT22;2228;48.140;11.488;2023-03-14T10:45:33;14.30;1.00
4431;DHT22;2228;48.140;11.488;2023-03-14T10:48:16;14.10;1.00
4431;DHT22;2228;48.140;11.488;2023-03-14T10:50:49;13.60;1.00
4431;DHT22;2228;48.140;11.488;2023-03-14T10:53:17;13.40;1.00
4431;DHT22;2228;48.140;11.488;2023-03-14T10:55:45;13.30;1.00
4431;DHT22;2228;48.140;11.488;2023-03-14T10:58:21;13.60;1.00
4431;DHT22;2228;48.140;11.488;2023-03-14T11:00:58;13.70;1.00
4431;DHT22;2228;48.140;11.488;2023-03-14T11:03:28;13.60;1.00
4431;DHT22;2228;48.140;11.488;2023-03-14T11:05:59;13.50;1.00
4431;DHT22;2228;48.140;11.488;2023-03-14T11:08:37;13.30;1.00
4431;DHT22;2228;48.140;11.488;2023-03-14T11:11:14;13.30;1.00
4431;DHT22;2228;48.140;11.488;2023-03-14T11:13:52;13.40;1.00
4431;DHT22;2228;48.140;11.488;2023-03-14T11:16:24;13.30;1.00
4431;DHT22;2228;48.140;11.488;2023-03-14T11:19:17;13.20;1.00
4431;DHT22;2228;48.140;11.488;2023-03-14T11:21:50;13.40;1.00
4431;DHT22;2228;48.140;11.488;2023-03-14T11:24:32;13.40;1.00
4431;DHT22;2228;48.140;11.488;2023-03-14T11:27:09;14.00;1.00
4431;DHT22;2228;48.140;11.488;2023-03-14T11:29:45;14.90;1.00
4431;DHT22;2228;48.140;11.488;2023-03-14T11:32:20;15.50;1.00
4431;DHT22;2228;48.140;11.488;2023-03-14T11:34:51;15.40;1.00
4431;DHT22;2228;48.140;11.488;2023-03-14T11:37:23;15.40;1.00
4431;DHT22;2228;48.140;11.488;2023-03-14T11:39:59;15.20;1.00
4431;DHT22;2228;48.140;11.488;2023-03-14T11:42:29;14.60;1.00
4431;DHT22;2228;48.140;11.488;2023-03-14T11:45:00;14.40;1.00
4431;DHT22;2228;48.140;11.488;2023-03-14T11:47:29;14.10;1.00
4431;DHT22;2228;48.140;11.488;2023-03-14T11:50:00;13.80;1.00
4431;DHT22;2228;48.140;11.488;2023-03-14T11:52:32;13.70;1.00
4431;DHT22;2228;48.140;11.488;2023-03-14T11:55:07;13.50;1.00
4431;DHT22;2228;48.140;11.488;2023-03-14T11:57:39;13.00;1.00
4431;DHT22;2228;48.140;11.488;2023-03-14T12:00:14;13.00;1.00
4431;DHT22;2228;48.140;11.488;2023-03-14T12:02:48;13.10;1.00
4431;DHT22;2228;48.140;11.488;2023-03-14T12:05:31;13.30;1.00
4431;DHT22;2228;48.140;11.488;2023-03-14T12:08:28;13.40;1.00
4431;DHT22;2228;48.140;11.488;2023-03-14T12:11:02;13.30;1.00
4431;DHT22;2228;48.140;11.488;2023-03-14T12:13:38;13.10;1.00
4431;DHT22;2228;48.140;11.488;2023-03-14T12:16:07;12.90;1.00
4431;DHT22;2228;48.140;11.488;2023-03-14T12:18:46;12.80;1.00
4431;DHT22;2228;48.140;11.488;2023-03-14T12:21:13;12.80;1.00
4431;DHT22;2228;48.140;11.488;2023-03-14T12:23:43;12.90;1.00
4431;DHT22;2228;48.140;11.488;2023-03-14T12:26:16;13.10;1.00
4431;DHT22;2228;48.140;11.488;2023-03-14T12:28:49;13.00;1.00
4431;DHT22;2228;48.140;11.488;2023-03-14T12:31:38;13.10;1.00
4431;DHT22;2228;48.140;11.488;2023-03-14T12:34:26;13.60;1.00
4431;DHT22;2228;48.140;11.488;2023-03-14T12:37:01;13.50;1.00
4431;DHT22;2228;48.140;11.488;2023-03-14T12:39:37;13.60;1.00
4431;DHT22;2228;48.140;11.488;2023-03-14T12:42:10;13.60;1.00
4431;DHT22;2228;48.140;11.488;2023-03-14T12:44:44;13.80;1.00
4431;DHT22;2228;48.140;11.488;2023-03-14T12:47:44;14.20;1.00
4431;DHT22;2228;48.140;11.488;2023-03-14T12:50:18;14.00;1.00
4431;DHT22;2228;48.140;11.488;2023-03-14T12:55:36;13.40;1.00
4431;DHT22;2228;48.140;11.488;2023-03-14T12:58:12;13.10;1.00
4431;DHT22;2228;48.140;11.488;2023-03-14T13:00:45;12.70;1.00
4431;DHT22;2228;48.140;11.488;2023-03-14T13:03:19;12.50;1.00
4431;DHT22;2228;48.140;11.488;2023-03-14T13:05:55;12.60;1.00
4431;DHT22;2228;48.140;11.488;2023-03-14T13:08:35;12.40;1.00
4431;DHT22;2228;48.140;11.488;2023-03-14T13:11:05;12.30;1.00
4431;DHT22;2228;48.140;11.488;2023-03-14T13:13:35;12.60;1.00
4431;DHT22;2228;48.140;11.488;2023-03-14T13:21:06;12.30;1.00
4431;DHT22;2228;48.140;11.488;2023-03-14T13:23:37;12.30;1.00
4431;DHT22;2228;48.140;11.488;2023-03-14T13:26:10;12.20;1.00
4431;DHT22;2228;48.140;11.488;2023-03-14T13:55:24;10.60;1.00
4431;DHT22;2228;48.140;11.488;2023-03-14T14:00:33;10.50;1.00
4431;DHT22;2228;48.140;11.488;2023-03-14T14:10:36;8.90;1.00
4431;DHT22;2228;48.140;11.488;2023-03-14T14:15:37;8.50;1.00
4431;DHT22;2228;48.140;11.488;2023-03-14T14:18:09;8.60;1.00
4431;DHT22;2228;48.140;11.488;2023-03-14T14:20:56;8.40;99.90
4431;DHT22;2228;48.140;11.488;2023-03-14T14:23:26;8.20;99.90
4431;DHT22;2228;48.140;11.488;2023-03-14T14:26:16;8.10;1.00
4431;DHT22;2228;48.140;11.488;2023-03-14T14:28:43;7.90;1.00
4431;DHT22;2228;48.140;11.488;2023-03-14T14:31:19;7.80;99.90
4431;DHT22;2228;48.140;11.488;2023-03-14T14:33:54;7.30;99.90
4431;DHT22;2228;48.140;11.488;2023-03-14T14:36:25;7.30;70.10
4431;DHT22;2228;48.140;11.488;2023-03-14T14:38:56;7.70;99.90
4431;DHT22;2228;48.140;11.488;2023-03-14T16:35:40;6.90;1.00
4431;DHT22;2228;48.140;11.488;2023-03-14T16:38:08;6.90;1.00
4431;DHT22;2228;48.140;11.488;2023-03-14T17:05:24;7.00;1.00
4431;DHT22;2228;48.140;11.488;2023-03-14T17:20:11;6.90;1.00
4431;DHT22;2228;48.140;11.488;2023-03-14T17:30:03;6.70;1.00
4431;DHT22;2228;48.140;11.488;2023-03-14T17:37:25;6.60;1.00
4431;DHT22;2228;48.140;11.488;2023-03-14T17:39:54;6.50;1.00
4431;DHT22;2228;48.140;11.488;2023-03-14T17:44:48;6.50;1.00
4431;DHT22;2228;48.140;11.488;2023-03-14T17:47:16;6.50;1.00
4431;DHT22;2228;48.140;11.488;2023-03-14T17:49:43;6.50;1.00
4431;DHT22;2228;48.140;11.488;2023-03-14T17:52:11;6.50;1.00
4431;DHT22;2228;48.140;11.488;2023-03-14T17:54:38;6.50;1.00
4431;DHT22;2228;48.140;11.488;2023-03-14T17:57:07;6.40;1.00
4431;DHT22;2228;48.140;11.488;2023-03-14T17:59:34;6.40;1.00
4431;DHT22;2228;48.140;11.488;2023-03-14T18:02:01;6.40;1.00
4431;DHT22;2228;48.140;11.488;2023-03-14T18:04:28;6.40;1.00
4431;DHT22;2228;48.140;11.488;2023-03-14T18:06:55;6.50;1.00
4431;DHT22;2228;48.140;11.488;2023-03-14T18:09:22;6.40;1.00
4431;DHT22;2228;48.140;11.488;2023-03-14T18:11:49;6.40;1.00
4431;DHT22;2228;48.140;11.488;2023-03-14T18:14:17;6.30;1.00
4431;DHT22;2228;48.140;11.488;2023-03-14T18:16:44;6.50;1.00
4431;DHT22;2228;48.140;11.488;2023-03-14T18:19:14;6.40;1.00
4431;DHT22;2228;48.140;11.488;2023-03-14T18:21:41;6.40;1.00
4431;DHT22;2228;48.140;11.488;2023-03-14T18:24:09;6.40;1.00
4431;DHT22;2228;48.140;11.488;2023-03-14T18:26:36;6.30;1.00
4431;DHT22;2228;48.140;11.488;2023-03-14T18:29:03;6.40;1.00
4431;DHT22;2228;48.140;11.488;2023-03-14T18:31:31;6.30;1.00
4431;DHT22;2228;48.140;11.488;2023-03-14T18:33:59;6.20;1.00
4431;DHT22;2228;48.140;11.488;2023-03-14T18:36:27;6.20;1.00
4431;DHT22;2228;48.140;11.488;2023-03-14T18:38:54;6.20;1.00
4431;DHT22;2228;48.140;11.488;2023-03-14T18:41:22;6.20;1.00
4431;DHT22;2228;48.140;11.488;2023-03-14T18:43:49;6.20;1.00
4431;DHT22;2228;48.140;11.488;2023-03-14T18:46:17;6.10;1.00
4431;DHT22;2228;48.140;11.488;2023-03-14T18:48:46;6.10;1.00
4431;DHT22;2228;48.140;11.488;2023-03-14T18:51:22;6.10;1.00
4431;DHT22;2228;48.140;11.488;2023-03-14T18:53:49;5.90;1.00
4431;DHT22;2228;48.140;11.488;2023-03-14T18:56:16;5.90;1.00
4431;DHT22;2228;48.140;11.488;2023-03-14T18:58:43;5.90;1.00
4431;DHT22;2228;48.140;11.488;2023-03-14T19:01:10;5.80;1.00
4431;DHT22;2228;48.140;11.488;2023-03-14T19:03:38;5.90;1.00
4431;DHT22;2228;48.140;11.488;2023-03-14T19:06:08;6.00;1.00
4431;DHT22;2228;48.140;11.488;2023-03-14T19:08:36;5.90;1.00
4431;DHT22;2228;48.140;11.488;2023-03-14T19:11:05;6.00;1.00
4431;DHT22;2228;48.140;11.488;2023-03-14T19:13:34;6.20;1.00
4431;DHT22;2228;48.140;11.488;2023-03-14T19:16:04;6.30;1.00
4431;DHT22;2228;48.140;11.488;2023-03-14T19:18:32;6.20;1.00
4431;DHT22;2228;48.140;11.488;2023-03-14T19:21:01;6.40;1.00
4431;DHT22;2228;48.140;11.488;2023-03-14T19:23:31;6.30;1.00
4431;DHT22;2228;48.140;11.488;2023-03-14T19:25:58;6.30;1.00
4431;DHT22;2228;48.140;11.488;2023-03-14T19:28:28;6.40;1.00
4431;DHT22;2228;48.140;11.488;2023-03-14T19:30:56;6.40;1.00
4431;DHT22;2228;48.140;11.488;2023-03-14T19:33:24;6.40;1.00
4431;DHT22;2228;48.140;11.488;2023-03-14T19:35:52;6.60;1.00
4431;DHT22;2228;48.140;11.488;2023-03-14T19:38:19;6.60;1.00
4431;DHT22;2228;48.140;11.488;2023-03-14T19:40:47;6.70;1.00
4431;DHT22;2228;48.140;11.488;2023-03-14T19:43:17;6.70;1.00
4431;DHT22;2228;48.140;11.488;2023-03-14T19:45:44;6.60;1.00
4431;DHT22;2228;48.140;11.488;2023-03-14T19:48:10;6.50;1.00
4431;DHT22;2228;48.140;11.488;2023-03-14T19:50:38;6.50;1.00
4431;DHT22;2228;48.140;11.488;2023-03-14T19:53:05;6.50;1.00
4431;DHT22;2228;48.140;11.488;2023-03-14T19:55:33;6.60;1.00
4431;DHT22;2228;48.140;11.488;2023-03-14T19:58:03;6.70;1.00